sensor_id;sensor_type;location;lat;lon;timestamp;temperature;humidity
51615;DHT22;37695;52.960;6.188;2022-07-18T00:00:59;15.40;99.90
51615;DHT22;37695;52.960;6.188;2022-07-18T00:03:24;15.30;99.90
51615;DHT22;37695;52.960;6.188;2022-07-18T00:05:50;15.30;99.90
51615;DHT22;37695;52.960;6.188;2022-07-18T00:08:16;15.30;99.90
51615;DHT22;37695;52.960;6.188;2022-07-18T00:10:42;15.30;99.90
51615;DHT22;37695;52.960;6.188;2022-07-18T00:13:08;15.30;99.90
51615;DHT22;37695;52.960;6.188;2022-07-18T00:15:35;15.30;99.90
51615;DHT22;37695;52.960;6.188;2022-07-18T00:18:01;15.30;99.90
51615;DHT22;37695;52.960;6.188;2022-07-18T00:20:27;15.30;99.90
51615;DHT22;37695;52.960;6.188;2022-07-18T00:22:52;15.30;99.90
51615;DHT22;37695;52.960;6.188;2022-07-18T00:25:18;15.20;99.90
51615;DHT22;37695;52.960;6.188;2022-07-18T00:27:44;15.20;99.90
51615;DHT22;37695;52.960;6.188;2022-07-18T00:30:10;15.20;99.90
51615;DHT22;37695;52.960;6.188;2022-07-18T00:32:35;15.20;99.90
51615;DHT22;37695;52.960;6.188;2022-07-18T00:35:01;15.10;99.90
51615;DHT22;37695;52.960;6.188;2022-07-18T00:37:26;15.10;99.90
51615;DHT22;37695;52.960;6.188;2022-07-18T00:39:52;15.10;99.90
51615;DHT22;37695;52.960;6.188;2022-07-18T00:42:18;15.10;99.90
51615;DHT22;37695;52.960;6.188;2022-07-18T00:44:44;15.10;99.90
51615;DHT22;37695;52.960;6.188;2022-07-18T00:47:11;15.10;99.90
51615;DHT22;37695;52.960;6.188;2022-07-18T00:49:37;15.10;99.90
51615;DHT22;37695;52.960;6.188;2022-07-18T00:52:03;15.00;99.90
51615;DHT22;37695;52.960;6.188;2022-07-18T00:54:29;15.00;99.90
51615;DHT22;37695;52.960;6.188;2022-07-18T00:56:56;15.00;99.90
51615;DHT22;37695;52.960;6.188;2022-07-18T00:59:22;14.90;99.90
51615;DHT22;37695;52.960;6.188;2022-07-18T01:01:48;14.90;99.90
51615;DHT22;37695;52.960;6.188;2022-07-18T01:04:22;14.80;99.90
51615;DHT22;37695;52.960;6.188;2022-07-18T01:06:49;14.90;99.90
51615;DHT22;37695;52.960;6.188;2022-07-18T01:09:16;14.90;99.90
51615;DHT22;37695;52.960;6.188;2022-07-18T01:11:44;14.90;99.90
51615;DHT22;37695;52.960;6.188;2022-07-18T01:14:10;14.90;99.90
51615;DHT22;37695;52.960;6.188;2022-07-18T01:16:36;14.90;99.90
51615;DHT22;37695;52.960;6.188;2022-07-18T01:19:03;14.90;99.90
51615;DHT22;37695;52.960;6.188;2022-07-18T01:21:28;14.90;99.90
51615;DHT22;37695;52.960;6.188;2022-07-18T01:23:54;14.90;99.90
51615;DHT22;37695;52.960;6.188;2022-07-18T01:26:20;14.80;99.90
51615;DHT22;37695;52.960;6.188;2022-07-18T01:28:46;14.80;99.90
51615;DHT22;37695;52.960;6.188;2022-07-18T01:31:13;14.80;99.90
51615;DHT22;37695;52.960;6.188;2022-07-18T01:33:39;14.80;99.90
51615;DHT22;37695;52.960;6.188;2022-07-18T01:36:06;14.80;99.90
51615;DHT22;37695;52.960;6.188;2022-07-18T01:38:33;14.70;99.90
51615;DHT22;37695;52.960;6.188;2022-07-18T01:40:59;14.50;99.90
51615;DHT22;37695;52.960;6.188;2022-07-18T01:43:26;14.40;99.90
51615;DHT22;37695;52.960;6.188;2022-07-18T01:45:52;14.40;99.90
51615;DHT22;37695;52.960;6.188;2022-07-18T01:48:19;14.40;99.90
51615;DHT22;37695;52.960;6.188;2022-07-18T01:50:45;14.50;99.90
51615;DHT22;37695;52.960;6.188;2022-07-18T01:53:11;14.50;99.90
51615;DHT22;37695;52.960;6.188;2022-07-18T01:55:36;14.40;99.90
51615;DHT22;37695;52.960;6.188;2022-07-18T01:58:02;14.40;99.90
51615;DHT22;37695;52.960;6.188;2022-07-18T02:00:28;14.30;99.90
51615;DHT22;37695;52.960;6.188;2022-07-18T02:02:53;14.40;99.90
51615;DHT22;37695;52.960;6.188;2022-07-18T02:05:19;14.30;99.90
51615;DHT22;37695;52.960;6.188;2022-07-18T02:07:45;14.40;99.90
51615;DHT22;37695;52.960;6.188;2022-07-18T02:10:14;14.40;99.90
51615;DHT22;37695;52.960;6.188;2022-07-18T02:12:41;14.40;99.90
51615;DHT22;37695;52.960;6.188;2022-07-18T02:15:08;14.40;99.90
51615;DHT22;37695;52.960;6.188;2022-07-18T02:17:34;14.40;99.90
51615;DHT22;37695;52.960;6.188;2022-07-18T02:20:01;14.30;99.90
51615;DHT22;37695;52.960;6.188;2022-07-18T02:22:26;14.20;99.90
51615;DHT22;37695;52.960;6.188;2022-07-18T02:24:53;14.10;99.90
51615;DHT22;37695;52.960;6.188;2022-07-18T02:27:19;14.10;99.90
51615;DHT22;37695;52.960;6.188;2022-07-18T02:29:45;14.10;99.90
51615;DHT22;37695;52.960;6.188;2022-07-18T02:32:11;14.00;99.90
51615;DHT22;37695;52.960;6.188;2022-07-18T02:34:36;14.00;99.90
51615;DHT22;37695;52.960;6.188;2022-07-18T02:37:03;14.00;99.90
51615;DHT22;37695;52.960;6.188;2022-07-18T02:39:28;14.00;99.90
51615;DHT22;37695;52.960;6.188;2022-07-18T02:41:54;14.00;99.90
51615;DHT22;37695;52.960;6.188;2022-07-18T02:44:20;14.00;99.90
51615;DHT22;37695;52.960;6.188;2022-07-18T02:46:46;14.00;99.90
51615;DHT22;37695;52.960;6.188;2022-07-18T02:49:11;14.10;99.90
51615;DHT22;37695;52.960;6.188;2022-07-18T02:51:56;14.10;99.90
51615;DHT22;37695;52.960;6.188;2022-07-18T02:54:22;14.10;99.90
51615;DHT22;37695;52.960;6.188;2022-07-18T02:56:48;14.20;99.90
51615;DHT22;37695;52.960;6.188;2022-07-18T02:59:14;14.20;99.90
51615;DHT22;37695;52.960;6.188;2022-07-18T03:01:39;14.20;99.90
51615;DHT22;37695;52.960;6.188;2022-07-18T03:04:05;14.20;99.90
51615;DHT22;37695;52.960;6.188;2022-07-18T03:06:30;14.20;99.90
51615;DHT22;37695;52.960;6.188;2022-07-18T03:08:56;14.20;99.90
51615;DHT22;37695;52.960;6.188;2022-07-18T03:11:22;14.20;99.90
51615;DHT22;37695;52.960;6.188;2022-07-18T03:13:47;14.20;99.90
51615;DHT22;37695;52.960;6.188;2022-07-18T03:16:13;14.20;99.90
51615;DHT22;37695;52.960;6.188;2022-07-18T03:18:38;14.20;99.90
51615;DHT22;37695;52.960;6.188;2022-07-18T03:21:04;14.20;99.90
51615;DHT22;37695;52.960;6.188;2022-07-18T03:23:29;14.20;99.90
51615;DHT22;37695;52.960;6.188;2022-07-18T03:25:55;14.30;99.90
51615;DHT22;37695;52.960;6.188;2022-07-18T03:28:21;14.30;99.90
51615;DHT22;37695;52.960;6.188;2022-07-18T03:30:46;14.40;99.90
51615;DHT22;37695;52.960;6.188;2022-07-18T03:33:12;14.40;99.90
51615;DHT22;37695;52.960;6.188;2022-07-18T03:35:37;14.40;99.90
51615;DHT22;37695;52.960;6.188;2022-07-18T03:38:03;14.30;99.90
51615;DHT22;37695;52.960;6.188;2022-07-18T03:40:29;14.30;99.90
51615;DHT22;37695;52.960;6.188;2022-07-18T03:42:54;14.30;99.90
51615;DHT22;37695;52.960;6.188;2022-07-18T03:45:20;14.20;99.90
51615;DHT22;37695;52.960;6.188;2022-07-18T03:47:45;14.40;99.90
51615;DHT22;37695;52.960;6.188;2022-07-18T03:50:11;14.50;99.90
51615;DHT22;37695;52.960;6.188;2022-07-18T03:52:36;14.50;99.90
51615;DHT22;37695;52.960;6.188;2022-07-18T03:55:02;14.50;99.90
51615;DHT22;37695;52.960;6.188;2022-07-18T03:57:28;14.50;99.90
51615;DHT22;37695;52.960;6.188;2022-07-18T03:59:54;14.50;99.90
51615;DHT22;37695;52.960;6.188;2022-07-18T04:02:19;14.60;99.90
51615;DHT22;37695;52.960;6.188;2022-07-18T04:04:45;14.70;99.90
51615;DHT22;37695;52.960;6.188;2022-07-18T04:07:11;14.70;99.90
51615;DHT22;37695;52.960;6.188;2022-07-18T04:09:36;14.80;99.90
51615;DHT22;37695;52.960;6.188;2022-07-18T04:12:02;14.80;99.90
51615;DHT22;37695;52.960;6.188;2022-07-18T04:14:28;14.80;99.90
51615;DHT22;37695;52.960;6.188;2022-07-18T04:16:54;14.80;99.90
51615;DHT22;37695;52.960;6.188;2022-07-18T04:19:19;14.80;99.90
51615;DHT22;37695;52.960;6.188;2022-07-18T04:21:45;14.90;99.90
51615;DHT22;37695;52.960;6.188;2022-07-18T04:24:11;14.90;99.90
51615;DHT22;37695;52.960;6.188;2022-07-18T04:26:37;14.90;99.90
51615;DHT22;37695;52.960;6.188;2022-07-18T04:29:03;15.00;99.90
51615;DHT22;37695;52.960;6.188;2022-07-18T04:31:29;15.00;99.90
51615;DHT22;37695;52.960;6.188;2022-07-18T04:33:54;15.00;99.90
51615;DHT22;37695;52.960;6.188;2022-07-18T04:36:20;15.00;99.90
51615;DHT22;37695;52.960;6.188;2022-07-18T04:38:46;15.10;99.90
51615;DHT22;37695;52.960;6.188;2022-07-18T04:41:12;15.10;99.90
51615;DHT22;37695;52.960;6.188;2022-07-18T04:43:37;15.10;99.90
51615;DHT22;37695;52.960;6.188;2022-07-18T04:46:03;15.20;99.90
51615;DHT22;37695;52.960;6.188;2022-07-18T04:48:29;15.20;99.90
51615;DHT22;37695;52.960;6.188;2022-07-18T04:50:55;15.20;99.90
51615;DHT22;37695;52.960;6.188;2022-07-18T04:53:20;15.20;99.90
51615;DHT22;37695;52.960;6.188;2022-07-18T04:55:46;15.20;99.90
51615;DHT22;37695;52.960;6.188;2022-07-18T04:58:12;15.30;99.90
51615;DHT22;37695;52.960;6.188;2022-07-18T05:00:38;15.40;99.90
51615;DHT22;37695;52.960;6.188;2022-07-18T05:03:03;15.40;99.90
51615;DHT22;37695;52.960;6.188;2022-07-18T05:05:29;15.30;99.90
51615;DHT22;37695;52.960;6.188;2022-07-18T05:07:55;15.40;99.90
51615;DHT22;37695;52.960;6.188;2022-07-18T05:10:22;15.50;99.90
51615;DHT22;37695;52.960;6.188;2022-07-18T05:12:50;15.50;99.90
51615;DHT22;37695;52.960;6.188;2022-07-18T05:15:19;15.60;99.90
51615;DHT22;37695;52.960;6.188;2022-07-18T05:17:45;15.70;99.90
51615;DHT22;37695;52.960;6.188;2022-07-18T05:20:14;15.80;99.90
51615;DHT22;37695;52.960;6.188;2022-07-18T05:22:40;15.90;99.90
51615;DHT22;37695;52.960;6.188;2022-07-18T05:25:07;16.00;99.90
51615;DHT22;37695;52.960;6.188;2022-07-18T05:27:33;16.10;99.90
51615;DHT22;37695;52.960;6.188;2022-07-18T05:29:59;16.20;99.90
51615;DHT22;37695;52.960;6.188;2022-07-18T05:32:28;16.30;99.90
51615;DHT22;37695;52.960;6.188;2022-07-18T05:34:53;16.30;99.90
51615;DHT22;37695;52.960;6.188;2022-07-18T05:37:19;16.40;99.90
51615;DHT22;37695;52.960;6.188;2022-07-18T05:39:45;16.40;99.90
51615;DHT22;37695;52.960;6.188;2022-07-18T05:42:10;16.40;99.90
51615;DHT22;37695;52.960;6.188;2022-07-18T05:44:36;16.40;99.90
51615;DHT22;37695;52.960;6.188;2022-07-18T05:47:02;16.50;99.90
51615;DHT22;37695;52.960;6.188;2022-07-18T05:49:27;16.60;99.90
51615;DHT22;37695;52.960;6.188;2022-07-18T05:51:53;16.60;99.90
51615;DHT22;37695;52.960;6.188;2022-07-18T05:54:18;16.70;99.90
51615;DHT22;37695;52.960;6.188;2022-07-18T05:56:47;16.80;99.90
51615;DHT22;37695;52.960;6.188;2022-07-18T05:59:13;16.90;99.90
51615;DHT22;37695;52.960;6.188;2022-07-18T06:01:39;16.90;99.90
51615;DHT22;37695;52.960;6.188;2022-07-18T06:04:05;17.00;99.90
51615;DHT22;37695;52.960;6.188;2022-07-18T06:06:31;17.10;99.90
51615;DHT22;37695;52.960;6.188;2022-07-18T06:08:56;17.20;99.90
51615;DHT22;37695;52.960;6.188;2022-07-18T06:11:22;17.30;99.90
51615;DHT22;37695;52.960;6.188;2022-07-18T06:13:48;17.40;99.90
51615;DHT22;37695;52.960;6.188;2022-07-18T06:16:13;17.40;99.90
51615;DHT22;37695;52.960;6.188;2022-07-18T06:18:39;17.50;99.90
51615;DHT22;37695;52.960;6.188;2022-07-18T06:21:05;17.60;99.90
51615;DHT22;37695;52.960;6.188;2022-07-18T06:23:30;17.70;99.90
51615;DHT22;37695;52.960;6.188;2022-07-18T06:25:57;17.80;99.90
51615;DHT22;37695;52.960;6.188;2022-07-18T06:28:23;18.00;99.90
51615;DHT22;37695;52.960;6.188;2022-07-18T06:30:50;18.00;99.90
51615;DHT22;37695;52.960;6.188;2022-07-18T06:33:15;18.20;99.90
51615;DHT22;37695;52.960;6.188;2022-07-18T06:35:41;18.30;99.90
51615;DHT22;37695;52.960;6.188;2022-07-18T06:38:07;18.40;99.90
51615;DHT22;37695;52.960;6.188;2022-07-18T06:40:32;18.40;99.90
51615;DHT22;37695;52.960;6.188;2022-07-18T06:42:58;18.50;99.90
51615;DHT22;37695;52.960;6.188;2022-07-18T06:45:23;18.60;99.90
51615;DHT22;37695;52.960;6.188;2022-07-18T06:47:49;18.60;99.90
51615;DHT22;37695;52.960;6.188;2022-07-18T06:50:15;18.70;99.90
51615;DHT22;37695;52.960;6.188;2022-07-18T06:52:43;18.80;99.90
51615;DHT22;37695;52.960;6.188;2022-07-18T06:55:11;18.90;99.90
51615;DHT22;37695;52.960;6.188;2022-07-18T06:57:37;19.00;99.90
51615;DHT22;37695;52.960;6.188;2022-07-18T07:00:04;19.10;99.90
51615;DHT22;37695;52.960;6.188;2022-07-18T07:02:30;19.20;99.90
51615;DHT22;37695;52.960;6.188;2022-07-18T07:04:56;19.30;99.90
51615;DHT22;37695;52.960;6.188;2022-07-18T07:07:21;19.40;99.90
51615;DHT22;37695;52.960;6.188;2022-07-18T07:09:47;19.50;99.90
51615;DHT22;37695;52.960;6.188;2022-07-18T07:12:12;19.60;99.90
51615;DHT22;37695;52.960;6.188;2022-07-18T07:14:38;19.80;99.90
51615;DHT22;37695;52.960;6.188;2022-07-18T07:17:04;19.90;99.90
51615;DHT22;37695;52.960;6.188;2022-07-18T07:19:30;20.10;99.90
51615;DHT22;37695;52.960;6.188;2022-07-18T07:21:55;20.20;99.90
51615;DHT22;37695;52.960;6.188;2022-07-18T07:24:21;20.40;99.90
51615;DHT22;37695;52.960;6.188;2022-07-18T07:26:47;20.50;99.90
51615;DHT22;37695;52.960;6.188;2022-07-18T07:29:13;20.60;99.90
51615;DHT22;37695;52.960;6.188;2022-07-18T07:31:43;20.80;99.90
51615;DHT22;37695;52.960;6.188;2022-07-18T07:34:09;20.90;99.90
51615;DHT22;37695;52.960;6.188;2022-07-18T07:36:35;21.00;99.90
51615;DHT22;37695;52.960;6.188;2022-07-18T07:39:00;21.10;99.90
51615;DHT22;37695;52.960;6.188;2022-07-18T07:41:26;21.10;99.90
51615;DHT22;37695;52.960;6.188;2022-07-18T07:43:52;21.30;99.90
51615;DHT22;37695;52.960;6.188;2022-07-18T07:46:17;21.30;99.90
51615;DHT22;37695;52.960;6.188;2022-07-18T07:48:43;21.30;99.90
51615;DHT22;37695;52.960;6.188;2022-07-18T07:51:09;21.30;99.90
51615;DHT22;37695;52.960;6.188;2022-07-18T07:53:35;21.40;99.90
51615;DHT22;37695;52.960;6.188;2022-07-18T07:56:01;21.60;99.90
51615;DHT22;37695;52.960;6.188;2022-07-18T07:58:26;21.70;99.90
51615;DHT22;37695;52.960;6.188;2022-07-18T08:00:52;21.80;99.90
51615;DHT22;37695;52.960;6.188;2022-07-18T08:03:17;22.00;99.90
51615;DHT22;37695;52.960;6.188;2022-07-18T08:05:50;22.30;99.90
51615;DHT22;37695;52.960;6.188;2022-07-18T08:08:17;22.40;99.90
51615;DHT22;37695;52.960;6.188;2022-07-18T08:10:43;22.60;99.90
51615;DHT22;37695;52.960;6.188;2022-07-18T08:13:10;22.80;99.90
51615;DHT22;37695;52.960;6.188;2022-07-18T08:15:36;23.10;99.90
51615;DHT22;37695;52.960;6.188;2022-07-18T08:18:02;23.20;99.90
51615;DHT22;37695;52.960;6.188;2022-07-18T08:20:28;23.40;99.90
51615;DHT22;37695;52.960;6.188;2022-07-18T08:23:05;23.50;99.90
51615;DHT22;37695;52.960;6.188;2022-07-18T08:25:34;23.60;99.90
51615;DHT22;37695;52.960;6.188;2022-07-18T08:28:00;23.70;99.90
51615;DHT22;37695;52.960;6.188;2022-07-18T08:30:27;23.90;99.80
51615;DHT22;37695;52.960;6.188;2022-07-18T08:32:53;24.00;99.60
51615;DHT22;37695;52.960;6.188;2022-07-18T08:35:19;24.10;99.30
51615;DHT22;37695;52.960;6.188;2022-07-18T08:37:44;24.30;99.10
51615;DHT22;37695;52.960;6.188;2022-07-18T08:40:11;24.40;98.80
51615;DHT22;37695;52.960;6.188;2022-07-18T08:42:37;24.50;98.80
51615;DHT22;37695;52.960;6.188;2022-07-18T08:45:04;24.70;98.70
51615;DHT22;37695;52.960;6.188;2022-07-18T08:47:30;24.90;98.30
51615;DHT22;37695;52.960;6.188;2022-07-18T08:49:57;25.00;98.10
51615;DHT22;37695;52.960;6.188;2022-07-18T08:52:23;25.10;97.80
51615;DHT22;37695;52.960;6.188;2022-07-18T08:54:49;25.20;97.70
51615;DHT22;37695;52.960;6.188;2022-07-18T08:57:16;25.30;97.50
51615;DHT22;37695;52.960;6.188;2022-07-18T08:59:42;25.30;97.70
51615;DHT22;37695;52.960;6.188;2022-07-18T09:02:08;25.20;97.30
51615;DHT22;37695;52.960;6.188;2022-07-18T09:04:34;25.40;97.50
51615;DHT22;37695;52.960;6.188;2022-07-18T09:07:00;25.50;97.30
51615;DHT22;37695;52.960;6.188;2022-07-18T09:09:26;25.60;96.60
51615;DHT22;37695;52.960;6.188;2022-07-18T09:12:11;25.90;96.60
51615;DHT22;37695;52.960;6.188;2022-07-18T09:19:38;26.00;94.90
51615;DHT22;37695;52.960;6.188;2022-07-18T09:22:31;25.90;95.10
51615;DHT22;37695;52.960;6.188;2022-07-18T09:24:58;25.90;92.70
51615;DHT22;37695;52.960;6.188;2022-07-18T09:27:25;26.00;94.80
51615;DHT22;37695;52.960;6.188;2022-07-18T09:30:26;26.10;94.60
51615;DHT22;37695;52.960;6.188;2022-07-18T09:33:12;26.20;93.90
51615;DHT22;37695;52.960;6.188;2022-07-18T09:35:53;26.30;92.80
51615;DHT22;37695;52.960;6.188;2022-07-18T09:38:21;26.20;92.40
51615;DHT22;37695;52.960;6.188;2022-07-18T09:40:53;26.40;93.80
51615;DHT22;37695;52.960;6.188;2022-07-18T09:43:22;26.50;93.30
51615;DHT22;37695;52.960;6.188;2022-07-18T09:45:53;26.60;93.20
51615;DHT22;37695;52.960;6.188;2022-07-18T09:48:21;26.50;92.60
51615;DHT22;37695;52.960;6.188;2022-07-18T09:53:41;26.60;93.10
51615;DHT22;37695;52.960;6.188;2022-07-18T09:56:09;26.70;92.20
51615;DHT22;37695;52.960;6.188;2022-07-18T09:58:38;26.90;93.20
51615;DHT22;37695;52.960;6.188;2022-07-18T10:01:06;26.80;92.70
51615;DHT22;37695;52.960;6.188;2022-07-18T10:03:32;26.80;92.80
51615;DHT22;37695;52.960;6.188;2022-07-18T10:05:58;26.80;92.90
51615;DHT22;37695;52.960;6.188;2022-07-18T10:08:26;27.00;92.90
51615;DHT22;37695;52.960;6.188;2022-07-18T10:10:53;27.00;92.00
51615;DHT22;37695;52.960;6.188;2022-07-18T10:13:20;27.20;91.80
51615;DHT22;37695;52.960;6.188;2022-07-18T10:15:47;27.20;91.20
51615;DHT22;37695;52.960;6.188;2022-07-18T10:18:15;27.20;90.90
51615;DHT22;37695;52.960;6.188;2022-07-18T10:20:57;27.40;89.80
51615;DHT22;37695;52.960;6.188;2022-07-18T10:23:50;27.50;89.00
51615;DHT22;37695;52.960;6.188;2022-07-18T10:26:24;27.70;89.50
51615;DHT22;37695;52.960;6.188;2022-07-18T10:31:33;28.00;89.20
51615;DHT22;37695;52.960;6.188;2022-07-18T10:34:10;28.00;87.70
51615;DHT22;37695;52.960;6.188;2022-07-18T10:37:06;28.00;86.70
51615;DHT22;37695;52.960;6.188;2022-07-18T10:39:57;28.10;87.20
51615;DHT22;37695;52.960;6.188;2022-07-18T10:42:43;28.20;83.90
51615;DHT22;37695;52.960;6.188;2022-07-18T10:45:41;28.40;86.00
51615;DHT22;37695;52.960;6.188;2022-07-18T10:51:00;28.60;80.70
51615;DHT22;37695;52.960;6.188;2022-07-18T10:54:03;28.40;82.60
51615;DHT22;37695;52.960;6.188;2022-07-18T11:01:51;27.90;78.20
51615;DHT22;37695;52.960;6.188;2022-07-18T11:04:35;28.00;79.90
51615;DHT22;37695;52.960;6.188;2022-07-18T11:09:46;28.20;78.80
51615;DHT22;37695;52.960;6.188;2022-07-18T11:12:26;28.30;77.10
51615;DHT22;37695;52.960;6.188;2022-07-18T11:14:59;28.30;76.80
51615;DHT22;37695;52.960;6.188;2022-07-18T11:22:50;28.50;77.70
51615;DHT22;37695;52.960;6.188;2022-07-18T11:25:17;28.40;77.10
51615;DHT22;37695;52.960;6.188;2022-07-18T11:27:44;28.30;75.60
51615;DHT22;37695;52.960;6.188;2022-07-18T11:30:10;28.20;76.40
51615;DHT22;37695;52.960;6.188;2022-07-18T11:32:41;28.20;77.40
51615;DHT22;37695;52.960;6.188;2022-07-18T11:35:07;28.20;76.70
51615;DHT22;37695;52.960;6.188;2022-07-18T11:37:33;28.20;76.20
51615;DHT22;37695;52.960;6.188;2022-07-18T11:40:09;28.10;76.10
51615;DHT22;37695;52.960;6.188;2022-07-18T11:42:40;28.20;75.70
51615;DHT22;37695;52.960;6.188;2022-07-18T11:45:07;28.20;75.50
51615;DHT22;37695;52.960;6.188;2022-07-18T11:47:47;28.30;76.40
51615;DHT22;37695;52.960;6.188;2022-07-18T11:50:14;28.30;73.20
51615;DHT22;37695;52.960;6.188;2022-07-18T11:52:40;28.30;75.80
51615;DHT22;37695;52.960;6.188;2022-07-18T11:55:07;28.40;76.00
51615;DHT22;37695;52.960;6.188;2022-07-18T11:57:34;28.50;76.00
51615;DHT22;37695;52.960;6.188;2022-07-18T12:00:00;28.70;75.10
51615;DHT22;37695;52.960;6.188;2022-07-18T12:03:05;28.80;74.80
51615;DHT22;37695;52.960;6.188;2022-07-18T12:05:36;29.00;70.90
51615;DHT22;37695;52.960;6.188;2022-07-18T12:08:31;29.00;73.40
51615;DHT22;37695;52.960;6.188;2022-07-18T12:11:27;29.00;68.80
51615;DHT22;37695;52.960;6.188;2022-07-18T12:14:19;29.00;69.70
51615;DHT22;37695;52.960;6.188;2022-07-18T12:16:47;28.90;69.10
51615;DHT22;37695;52.960;6.188;2022-07-18T12:19:18;28.90;70.90
51615;DHT22;37695;52.960;6.188;2022-07-18T12:22:07;28.70;70.00
51615;DHT22;37695;52.960;6.188;2022-07-18T12:24:40;28.70;70.40
51615;DHT22;37695;52.960;6.188;2022-07-18T12:30:11;28.60;70.50
51615;DHT22;37695;52.960;6.188;2022-07-18T12:32:47;28.60;69.20
51615;DHT22;37695;52.960;6.188;2022-07-18T12:35:26;28.50;68.70
51615;DHT22;37695;52.960;6.188;2022-07-18T12:37:59;28.20;75.70
51615;DHT22;37695;52.960;6.188;2022-07-18T12:40:27;28.20;78.70
51615;DHT22;37695;52.960;6.188;2022-07-18T12:43:08;28.30;75.80
51615;DHT22;37695;52.960;6.188;2022-07-18T12:45:35;28.60;74.60
51615;DHT22;37695;52.960;6.188;2022-07-18T12:48:01;28.80;74.60
51615;DHT22;37695;52.960;6.188;2022-07-18T12:50:27;29.10;72.60
51615;DHT22;37695;52.960;6.188;2022-07-18T12:52:52;29.40;72.00
51615;DHT22;37695;52.960;6.188;2022-07-18T12:55:18;29.70;71.60
51615;DHT22;37695;52.960;6.188;2022-07-18T12:57:45;29.80;70.20
51615;DHT22;37695;52.960;6.188;2022-07-18T13:00:11;29.80;69.70
51615;DHT22;37695;52.960;6.188;2022-07-18T13:02:37;29.50;69.40
51615;DHT22;37695;52.960;6.188;2022-07-18T13:05:03;29.30;69.30
51615;DHT22;37695;52.960;6.188;2022-07-18T13:07:28;29.10;69.30
51615;DHT22;37695;52.960;6.188;2022-07-18T13:09:54;28.90;69.80
51615;DHT22;37695;52.960;6.188;2022-07-18T13:12:20;28.60;69.80
51615;DHT22;37695;52.960;6.188;2022-07-18T13:14:45;28.50;69.60
51615;DHT22;37695;52.960;6.188;2022-07-18T13:17:11;28.30;70.00
51615;DHT22;37695;52.960;6.188;2022-07-18T13:19:37;28.20;70.20
51615;DHT22;37695;52.960;6.188;2022-07-18T13:22:02;28.20;70.10
51615;DHT22;37695;52.960;6.188;2022-07-18T13:24:28;28.20;70.50
51615;DHT22;37695;52.960;6.188;2022-07-18T13:26:54;28.30;70.70
51615;DHT22;37695;52.960;6.188;2022-07-18T13:29:19;28.20;70.80
51615;DHT22;37695;52.960;6.188;2022-07-18T13:31:45;28.10;70.90
51615;DHT22;37695;52.960;6.188;2022-07-18T13:34:10;28.10;71.10
51615;DHT22;37695;52.960;6.188;2022-07-18T13:36:36;28.10;71.20
51615;DHT22;37695;52.960;6.188;2022-07-18T13:39:02;28.10;70.80
51615;DHT22;37695;52.960;6.188;2022-07-18T13:41:29;28.20;70.40
51615;DHT22;37695;52.960;6.188;2022-07-18T13:43:55;28.10;69.90
51615;DHT22;37695;52.960;6.188;2022-07-18T13:46:21;28.20;69.80
51615;DHT22;37695;52.960;6.188;2022-07-18T13:48:46;28.10;68.70
51615;DHT22;37695;52.960;6.188;2022-07-18T13:51:13;28.10;68.00
51615;DHT22;37695;52.960;6.188;2022-07-18T13:53:38;28.10;67.20
51615;DHT22;37695;52.960;6.188;2022-07-18T13:56:04;28.00;66.40
51615;DHT22;37695;52.960;6.188;2022-07-18T13:58:29;28.10;66.70
51615;DHT22;37695;52.960;6.188;2022-07-18T14:00:55;28.20;66.30
51615;DHT22;37695;52.960;6.188;2022-07-18T14:03:21;28.20;66.70
51615;DHT22;37695;52.960;6.188;2022-07-18T14:05:46;28.30;67.60
51615;DHT22;37695;52.960;6.188;2022-07-18T14:08:12;28.50;67.80
51615;DHT22;37695;52.960;6.188;2022-07-18T14:10:38;28.50;66.50
51615;DHT22;37695;52.960;6.188;2022-07-18T14:13:04;28.30;65.50
51615;DHT22;37695;52.960;6.188;2022-07-18T14:15:29;28.30;64.80
51615;DHT22;37695;52.960;6.188;2022-07-18T14:17:55;28.30;64.60
51615;DHT22;37695;52.960;6.188;2022-07-18T14:20:21;28.50;64.70
51615;DHT22;37695;52.960;6.188;2022-07-18T14:22:47;28.70;64.70
51615;DHT22;37695;52.960;6.188;2022-07-18T14:25:16;28.80;65.10
51615;DHT22;37695;52.960;6.188;2022-07-18T14:27:43;29.00;65.10
51615;DHT22;37695;52.960;6.188;2022-07-18T14:30:12;29.10;64.90
51615;DHT22;37695;52.960;6.188;2022-07-18T14:32:38;29.00;64.50
51615;DHT22;37695;52.960;6.188;2022-07-18T14:35:04;29.10;65.30
51615;DHT22;37695;52.960;6.188;2022-07-18T14:37:30;29.10;65.40
51615;DHT22;37695;52.960;6.188;2022-07-18T14:39:56;29.00;64.60
51615;DHT22;37695;52.960;6.188;2022-07-18T14:42:22;29.00;64.50
51615;DHT22;37695;52.960;6.188;2022-07-18T14:44:47;29.00;65.80
51615;DHT22;37695;52.960;6.188;2022-07-18T14:47:13;29.00;66.00
51615;DHT22;37695;52.960;6.188;2022-07-18T14:49:39;29.00;65.20
51615;DHT22;37695;52.960;6.188;2022-07-18T14:52:04;29.00;65.10
51615;DHT22;37695;52.960;6.188;2022-07-18T14:54:30;29.00;64.90
51615;DHT22;37695;52.960;6.188;2022-07-18T14:56:55;29.00;64.60
51615;DHT22;37695;52.960;6.188;2022-07-18T14:59:22;29.00;65.60
51615;DHT22;37695;52.960;6.188;2022-07-18T15:01:49;29.00;65.80
51615;DHT22;37695;52.960;6.188;2022-07-18T15:04:15;29.00;67.30
51615;DHT22;37695;52.960;6.188;2022-07-18T15:06:41;29.00;66.20
51615;DHT22;37695;52.960;6.188;2022-07-18T15:09:07;29.00;66.20
51615;DHT22;37695;52.960;6.188;2022-07-18T15:11:35;29.00;65.40
51615;DHT22;37695;52.960;6.188;2022-07-18T15:14:01;29.00;65.30
51615;DHT22;37695;52.960;6.188;2022-07-18T15:16:27;28.90;65.80
51615;DHT22;37695;52.960;6.188;2022-07-18T15:18:52;28.80;66.30
51615;DHT22;37695;52.960;6.188;2022-07-18T15:21:18;28.70;66.30
51615;DHT22;37695;52.960;6.188;2022-07-18T15:23:43;28.70;66.60
51615;DHT22;37695;52.960;6.188;2022-07-18T15:26:09;28.60;67.20
51615;DHT22;37695;52.960;6.188;2022-07-18T15:28:34;28.60;68.50
51615;DHT22;37695;52.960;6.188;2022-07-18T15:31:00;28.60;67.90
51615;DHT22;37695;52.960;6.188;2022-07-18T15:33:26;28.60;67.60
51615;DHT22;37695;52.960;6.188;2022-07-18T15:35:51;28.60;67.80
51615;DHT22;37695;52.960;6.188;2022-07-18T15:38:17;28.60;67.80
51615;DHT22;37695;52.960;6.188;2022-07-18T15:40:43;28.60;67.70
51615;DHT22;37695;52.960;6.188;2022-07-18T15:43:09;28.50;68.00
51615;DHT22;37695;52.960;6.188;2022-07-18T15:45:35;28.30;68.80
51615;DHT22;37695;52.960;6.188;2022-07-18T15:48:01;28.20;69.30
51615;DHT22;37695;52.960;6.188;2022-07-18T15:50:26;28.20;69.00
51615;DHT22;37695;52.960;6.188;2022-07-18T15:52:52;28.20;68.70
51615;DHT22;37695;52.960;6.188;2022-07-18T15:55:17;28.20;68.10
51615;DHT22;37695;52.960;6.188;2022-07-18T15:57:43;28.30;68.30
51615;DHT22;37695;52.960;6.188;2022-07-18T16:00:10;28.20;68.70
51615;DHT22;37695;52.960;6.188;2022-07-18T16:02:35;28.20;69.80